Malaga, New Mexico
Current Conditions -  °F | °C
As of 8:53 AM on Thursday 18 Dec 2014 (Local Time) from KCNM Reporting Station
Clear Clear  
Wind Chill: 56°   Ceiling: Unl
Heat Index: 56°   Visibility: 10mi
Dew Point: 35°   Wind: 8mph
Humidity: 45%   Direction: 270°W
Pressure: 30.13"   Gusts: NA
Location:  32.23°N, 104.07°W
Report Text: KCNM 181553Z AUTO 27007KT 10SM CLR 13/02 A3013 RMK AO2 SLP176 T01330017
Loading
Personal Weather Stations






























Interactive Weather Map New forecast layout! Learn more

10-Day Weather Forecast

Advertisements
Track Severe Weather on mobile